Etusivu
METAR-TAF:

METAR-TAF

Lentoasemat :

Missoula, Montana, Yhdysvallat

Leveyspiiri: 46-55-15N, Pituuspiiri: 114-05-33W, korkeus merenpinnasta: 975 m

Tämänhetkinen sää

Tämä raportti tehtiin 54 minuuttia sitten, kello 23.53 UTC
Tuuli 8 kn lännestä/luoteesta puuskistuen 18 kn:hen
Lämpötila 22°C
Kosteus 21%
Ilmanpaine 1016 hPa
Näkyvyys: 16.1 km
Hajanaisia pilviä 9000 ft:n korkeudessa

METAR: KMSO 192353Z 30008G18KT 10SM SCT090 22/M01 A2999 RMK AO2 SLP147 T02221006 10228 20189 55002

Aika: 18:47 (00:47 UTC)

Sääennuste

Tämä raportti tehtiin 1 tunti ja 27 minuuttia sitten, kello 23.20 UTC
Ennuste voimassa 20. päivästä klo 00 UTC - 20. päivään klo 24 UTC
Tuuli 8 kn pohjoisen/luoteesta puuskistuen 18 kn:hen
Näkyvyys: 10 km
Muutamia pilviä 15000 ft:n korkeudessa
From 20. päivästä klo 0200 UTC
Tuuli 6 kn luoteesta
Näkyvyys: 10 km
Muutamia pilviä 9000 ft:n korkeudessa

TAF: KMSO 192320Z 2000/2024 33008G18KT P6SM FEW150 FM200200 32006KT P6SM FEW090

Säähavainnot ja -ennusteet yli 4000 lentoasemalta (METAR- ja TAF-raportit).

Käytössä olevat sääasemat on merkitty karttaan keltaisilla ja punaisilla pisteillä.

Aseta hiiri pisteen päälle nähdäksesi sääaseman nimen.

Klikkaa sitten nähdäksesi säähavainnot ja -ennusteet.

Kartan vaihtaminen: klikkaa mustalla rastilla varustettuja vihreitä pisteitä, niin voit zoomata sisään; viivalla varustettua vihreää pistettä, niin voit zoomata ulos tai vihreitä nuolia, niin pääset viereisille kartoille.


METAR-TAF: